Time;durP1;ratioP1;P1;durP2;ratioP2;P2;SDS_P1;SDS_P2;PMS_P1;PMS_P2;Temp;Humidity;BMP_temperature;BMP_pressure;BME280_temperature;BME280_humidity;BME280_pressure;Samples;Min_cycle;Max_cycle;Signal;HPM_P1;HPM_P2
2024/02/24 00:00:05;;;;;;;2.80;0.88;;;;;;;4.47;100.00;99613.34;5002623;28;20042;-72
2024/02/24 00:02:37;;;;;;;;;;;;;;;4.48;100.00;99617.59;5007289;28;20136;-76
2024/02/24 00:05:07;;;;;;;2.55;0.80;;;;;;;4.52;100.00;99618.66;5006675;28;20008;-74
2024/02/24 00:07:33;;;;;;;3.88;1.33;;;;;;;4.55;100.00;99609.41;5002882;28;20141;-73
2024/02/24 00:09:59;;;;;;;3.92;1.00;;;;;;;4.54;100.00;99610.44;5006310;28;20135;-74
2024/02/24 00:12:25;;;;;;;4.10;1.10;;;;;;;4.59;100.00;99624.53;5004299;28;20092;-73
2024/02/24 00:14:50;;;;;;;3.00;1.00;;;;;;;4.59;100.00;99621.88;5000659;28;20045;-73
2024/02/24 00:17:16;;;;;;;3.13;0.90;;;;;;;4.60;100.00;99617.38;5000560;28;20034;-74
2024/02/24 00:19:42;;;;;;;5.22;1.75;;;;;;;4.58;100.00;99614.19;4987140;28;20046;-72
2024/02/24 00:22:07;;;;;;;4.50;1.13;;;;;;;4.54;100.00;99613.94;5001077;28;20539;-74
2024/02/24 00:24:33;;;;;;;3.17;1.30;;;;;;;4.51;100.00;99616.28;4999829;28;20902;-73
2024/02/24 00:26:58;;;;;;;5.50;1.08;;;;;;;4.46;100.00;99613.59;5004699;28;20033;-73
2024/02/24 00:29:24;;;;;;;3.10;0.93;;;;;;;4.42;100.00;99610.66;4985449;28;20037;-75
2024/02/24 00:31:50;;;;;;;2.40;1.15;;;;;;;4.35;100.00;99607.44;5000702;28;20042;-74
2024/02/24 00:34:15;;;;;;;4.10;1.40;;;;;;;4.33;100.00;99614.84;5006569;28;20038;-73
2024/02/24 00:36:41;;;;;;;2.25;1.20;;;;;;;4.28;100.00;99612.19;5001924;28;20095;-73
2024/02/24 00:39:07;;;;;;;3.28;1.08;;;;;;;4.24;100.00;99611.06;4998847;28;20104;-73
2024/02/24 00:41:32;;;;;;;1.95;0.95;;;;;;;4.18;100.00;99606.78;5005819;28;20069;-73
2024/02/24 00:43:59;;;;;;;4.32;0.98;;;;;;;4.13;100.00;99617.34;5002079;28;20037;-73
2024/02/24 00:46:25;;;;;;;2.30;1.13;;;;;;;4.07;100.00;99614.69;4981383;28;20038;-74
2024/02/24 00:48:50;;;;;;;2.92;1.35;;;;;;;4.04;100.00;99617.81;4984740;28;20384;-78
2024/02/24 00:51:16;;;;;;;4.00;1.20;;;;;;;4.02;100.00;99612.00;5000764;28;20123;-74
2024/02/24 00:53:42;;;;;;;3.33;1.20;;;;;;;4.01;100.00;99612.25;5005207;28;20038;-74
2024/02/24 00:56:07;;;;;;;1.98;0.90;;;;;;;3.99;100.00;99609.84;4999318;28;20061;-73
2024/02/24 00:58:33;;;;;;;3.03;1.40;;;;;;;3.96;100.00;99612.19;5004662;28;20034;-74
2024/02/24 01:00:59;;;;;;;4.47;1.00;;;;;;;3.92;100.00;99611.91;5010694;28;20046;-74
2024/02/24 01:03:24;;;;;;;2.58;1.23;;;;;;;3.90;100.00;99611.34;4987784;28;20077;-73
2024/02/24 01:05:50;;;;;;;5.72;1.45;;;;;;;3.87;100.00;99614.53;5001280;28;20558;-74
2024/02/24 01:08:15;;;;;;;4.20;1.50;;;;;;;3.86;100.00;99610.25;4997171;28;20436;-73
2024/02/24 01:10:41;;;;;;;2.83;1.42;;;;;;;3.82;100.00;99609.97;5003313;28;20033;-74
2024/02/24 01:13:07;;;;;;;4.57;1.15;;;;;;;3.83;100.00;99627.47;4998555;28;20124;-73
2024/02/24 01:15:33;;;;;;;5.97;1.40;;;;;;;3.82;100.00;99625.06;5001529;28;20133;-73
2024/02/24 01:18:00;;;;;;;5.15;1.13;;;;;;;3.81;100.00;99623.47;4983171;28;20515;-75
2024/02/24 01:20:26;;;;;;;4.72;1.30;;;;;;;3.77;100.00;99627.66;5003882;28;20537;-75
2024/02/24 01:22:57;;;;;;;3.22;1.67;;;;;;;3.72;100.00;99617.03;4996642;28;20038;-75
2024/02/24 01:25:23;;;;;;;3.70;1.50;;;;;;;3.69;100.00;99614.91;4970911;28;20061;-74
2024/02/24 01:27:49;;;;;;;5.28;1.52;;;;;;;3.65;100.00;99630.47;5001423;28;20138;-74
2024/02/24 01:30:18;;;;;;;;;;;;;;;3.61;100.00;99629.38;5002526;28;20034;-73
2024/02/24 01:32:43;;;;;;;3.50;1.65;;;;;;;3.55;100.00;99623.25;4999913;28;19918;-73
2024/02/24 01:35:09;;;;;;;6.35;1.65;;;;;;;3.51;100.00;99621.34;4995132;28;20875;-73
2024/02/24 01:37:36;;;;;;;2.47;1.15;;;;;;;3.47;100.00;99630.84;5001107;28;20052;-74
2024/02/24 01:40:05;;;;;;;2.40;1.13;;;;;;;3.39;100.00;99634.75;5002044;28;20823;-73
2024/02/24 01:42:30;;;;;;;3.10;1.00;;;;;;;3.34;100.00;99642.63;5002340;28;20038;-74
2024/02/24 01:44:56;;;;;;;4.07;1.15;;;;;;;3.26;100.00;99638.56;4999487;28;20499;-73
2024/02/24 01:47:23;;;;;;;2.90;1.10;;;;;;;3.21;100.00;99640.34;4965595;28;20042;-74
2024/02/24 01:49:51;;;;;;;2.45;1.60;;;;;;;3.18;100.00;99636.34;4997024;28;20030;-72
2024/02/24 01:52:16;;;;;;;2.95;1.10;;;;;;;3.15;100.00;99631.56;5002355;28;20391;-72
2024/02/24 01:54:42;;;;;;;2.10;1.33;;;;;;;3.15;100.00;99625.47;5014675;28;20495;-77
2024/02/24 01:57:09;;;;;;;3.30;1.33;;;;;;;3.15;100.00;99625.47;4972105;28;20037;-74
2024/02/24 01:59:35;;;;;;;4.43;1.77;;;;;;;3.16;100.00;99625.22;4998838;28;20932;-74
2024/02/24 02:02:01;;;;;;;2.42;1.20;;;;;;;3.15;100.00;99620.19;4998433;28;20073;-74
2024/02/24 02:04:27;;;;;;;3.60;1.25;;;;;;;3.15;100.00;99628.13;4969282;28;20136;-74
2024/02/24 02:06:53;;;;;;;3.42;1.35;;;;;;;3.12;100.00;99631.28;5004879;28;20120;-73
2024/02/24 02:09:19;;;;;;;3.15;1.17;;;;;;;3.11;100.00;99625.16;4986917;28;20038;-75
2024/02/24 02:11:44;;;;;;;3.05;1.50;;;;;;;3.09;100.00;99629.09;5007282;28;20084;-75
2024/02/24 02:14:11;;;;;;;4.45;1.40;;;;;;;3.08;100.00;99636.25;4997366;28;20490;-75
2024/02/24 02:16:38;;;;;;;2.92;1.30;;;;;;;3.04;100.00;99632.47;5001098;28;20898;-74
2024/02/24 02:19:04;;;;;;;4.03;1.13;;;;;;;3.00;100.00;99639.31;4998978;28;20034;-74
2024/02/24 02:21:35;;;;;;;6.20;1.00;;;;;;;2.94;100.00;99635.81;5018340;28;20037;-74
2024/02/24 02:24:02;;;;;;;4.10;1.27;;;;;;;2.91;100.00;99644.25;5001758;28;20106;-75
2024/02/24 02:26:28;;;;;;;3.88;1.05;;;;;;;2.84;100.00;99645.44;4995779;28;20539;-74
2024/02/24 02:28:54;;;;;;;5.20;1.45;;;;;;;2.79;100.00;99646.22;5003649;28;20034;-73
2024/02/24 02:31:20;;;;;;;5.13;1.25;;;;;;;2.78;100.00;99644.63;5001474;28;20157;-73
2024/02/24 02:33:46;;;;;;;6.32;2.03;;;;;;;2.78;100.00;99655.19;5000912;28;20499;-73
2024/02/24 02:36:11;;;;;;;2.35;1.13;;;;;;;2.72;100.00;99648.22;4997980;28;20034;-75
2024/02/24 02:38:37;;;;;;;5.50;2.08;;;;;;;2.68;100.00;99649.75;4994704;28;20046;-74
2024/02/24 02:41:02;;;;;;;5.53;1.50;;;;;;;2.65;100.00;99653.69;4999574;28;20037;-73
2024/02/24 02:43:28;;;;;;;6.00;1.40;;;;;;;2.63;100.00;99649.69;5002616;28;20072;-73
2024/02/24 02:45:54;;;;;;;3.38;1.35;;;;;;;2.61;100.00;99646.47;4999969;28;20030;-74
2024/02/24 02:48:19;;;;;;;3.67;1.55;;;;;;;2.59;100.00;99644.09;4992478;28;20487;-73
2024/02/24 02:50:45;;;;;;;4.07;1.60;;;;;;;2.57;100.00;99642.72;4995050;28;20627;-73
2024/02/24 02:53:11;;;;;;;3.38;1.40;;;;;;;2.58;100.00;99644.34;5002697;28;20637;-72
2024/02/24 02:55:37;;;;;;;4.15;1.30;;;;;;;2.59;100.00;99643.28;5002425;28;20061;-73
2024/02/24 02:58:03;;;;;;;5.57;1.30;;;;;;;2.57;100.00;99653.28;4999420;28;20041;-73
2024/02/24 03:00:29;;;;;;;2.63;1.25;;;;;;;2.56;100.00;99646.41;4969640;28;20038;-73
2024/02/24 03:02:55;;;;;;;3.35;1.63;;;;;;;2.51;100.00;99655.09;5002840;28;20040;-74
2024/02/24 03:05:20;;;;;;;4.40;1.60;;;;;;;2.47;100.00;99659.25;4983569;28;20025;-73
2024/02/24 03:07:46;;;;;;;5.35;1.75;;;;;;;2.45;100.00;99656.84;4986827;28;20041;-74
2024/02/24 03:10:12;;;;;;;4.43;1.40;;;;;;;2.46;100.00;99649.72;4997027;28;20124;-74
2024/02/24 03:12:38;;;;;;;4.57;1.30;;;;;;;2.44;100.00;99655.25;4999860;28;20072;-73
2024/02/24 03:15:04;;;;;;;5.63;1.80;;;;;;;2.42;100.00;99659.97;4983777;28;20061;-75
2024/02/24 03:17:30;;;;;;;5.65;1.40;;;;;;;2.38;100.00;99658.88;4969577;28;20037;-75
2024/02/24 03:19:55;;;;;;;3.08;1.75;;;;;;;2.36;100.00;99671.50;5003757;28;20045;-76
2024/02/24 03:22:21;;;;;;;7.57;1.30;;;;;;;2.35;100.00;99659.31;5007397;28;20767;-74
2024/02/24 03:24:46;;;;;;;5.25;1.35;;;;;;;2.32;100.00;99667.75;5005365;28;20042;-76
2024/02/24 03:27:13;;;;;;;5.32;1.40;;;;;;;2.29;100.00;99670.06;5002139;28;20029;-75
2024/02/24 03:29:39;;;;;;;2.67;1.20;;;;;;;2.26;100.00;99676.63;5006812;28;20092;-75
2024/02/24 03:32:05;;;;;;;5.65;1.52;;;;;;;2.25;100.00;99671.59;5004594;28;20380;-75
2024/02/24 03:34:31;;;;;;;9.35;1.40;;;;;;;2.23;100.00;99666.53;4999438;28;20069;-76
2024/02/24 03:36:56;;;;;;;5.57;1.55;;;;;;;2.18;100.00;99669.91;4985685;28;21509;-77
2024/02/24 03:39:22;;;;;;;3.65;1.20;;;;;;;2.12;100.00;99659.50;5005727;28;20033;-75
2024/02/24 03:41:48;;;;;;;4.10;1.50;;;;;;;2.05;100.00;99672.06;5003311;28;20044;-74
2024/02/24 03:44:14;;;;;;;4.97;1.50;;;;;;;1.99;100.00;99671.19;4972038;28;20403;-75
2024/02/24 03:46:40;;;;;;;3.22;1.40;;;;;;;1.99;100.00;99670.38;5002050;28;20940;-75
2024/02/24 03:49:06;;;;;;;4.25;1.27;;;;;;;1.98;100.00;99671.44;4999606;28;20029;-75
2024/02/24 03:51:32;;;;;;;4.88;1.42;;;;;;;1.97;100.00;99677.75;4991837;28;20523;-75
2024/02/24 03:53:57;;;;;;;3.42;1.52;;;;;;;1.95;100.00;99675.34;4992394;28;20163;-75
2024/02/24 03:56:23;;;;;;;6.40;1.42;;;;;;;1.92;100.00;99671.34;5005174;28;20037;-75
2024/02/24 03:58:49;;;;;;;5.05;1.70;;;;;;;1.89;100.00;99666.53;4973025;28;20065;-75
2024/02/24 04:01:15;;;;;;;4.80;1.52;;;;;;;1.92;100.00;99670.53;4992029;28;20091;-76
2024/02/24 04:03:40;;;;;;;5.80;1.42;;;;;;;1.89;100.00;99671.00;5004933;28;20094;-76
2024/02/24 04:06:06;;;;;;;4.45;1.38;;;;;;;1.89;100.00;99687.66;5005993;28;20025;-75
2024/02/24 04:08:32;;;;;;;3.40;1.15;;;;;;;1.88;100.00;99683.41;4991478;28;20034;-76
2024/02/24 04:10:58;;;;;;;6.55;2.10;;;;;;;1.90;100.00;99689.28;4998626;28;20030;-75
2024/02/24 04:13:23;;;;;;;5.00;1.42;;;;;;;1.91;100.00;99685.59;5000441;28;20037;-75
2024/02/24 04:15:50;;;;;;;3.45;1.50;;;;;;;1.91;100.00;99680.31;5003283;28;20038;-74
2024/02/24 04:18:16;;;;;;;3.70;1.60;;;;;;;1.90;100.00;99681.34;4968114;28;20041;-74
2024/02/24 04:20:46;;;;;;;;;;;;;;;1.92;100.00;99681.09;5005263;28;20033;-75
2024/02/24 04:23:12;;;;;;;4.95;1.42;;;;;;;1.94;100.00;99688.78;5005663;28;20409;-76
2024/02/24 04:25:38;;;;;;;6.32;1.60;;;;;;;1.92;100.00;99683.75;5001920;28;20551;-76
2024/02/24 04:28:04;;;;;;;3.22;1.48;;;;;;;1.91;100.00;99688.22;4994812;28;20152;-76
2024/02/24 04:30:30;;;;;;;4.38;1.40;;;;;;;1.90;100.00;99688.47;5003715;28;20032;-77
2024/02/24 04:32:55;;;;;;;3.13;1.75;;;;;;;1.88;100.00;99693.97;5012859;28;20044;-75
2024/02/24 04:35:23;;;;;;;3.10;1.58;;;;;;;1.86;100.00;99692.63;4968041;28;20068;-76
2024/02/24 04:37:49;;;;;;;5.28;1.38;;;;;;;1.84;100.00;99692.84;5000083;28;20730;-76
2024/02/24 04:40:15;;;;;;;6.32;2.00;;;;;;;1.80;100.00;99689.09;5001524;28;20458;-76
2024/02/24 04:42:40;;;;;;;3.75;1.23;;;;;;;1.76;100.00;99685.34;5004094;28;20038;-75
2024/02/24 04:45:06;;;;;;;2.70;1.50;;;;;;;1.72;100.00;99701.88;4988673;28;20029;-76
2024/02/24 04:47:32;;;;;;;2.45;1.30;;;;;;;1.66;100.00;99697.53;5006836;28;20044;-76
2024/02/24 04:49:58;;;;;;;4.32;1.90;;;;;;;1.57;100.00;99697.91;5009165;28;20487;-75
2024/02/24 04:52:23;;;;;;;3.55;1.33;;;;;;;1.57;100.00;99699.75;5006029;28;20550;-76
2024/02/24 04:54:49;;;;;;;6.22;1.50;;;;;;;1.58;100.00;99701.34;5007029;28;20104;-76
2024/02/24 04:57:14;;;;;;;3.78;1.50;;;;;;;1.55;100.00;99707.09;4999668;28;20030;-78
2024/02/24 04:59:40;;;;;;;4.38;1.40;;;;;;;1.52;100.00;99711.00;5004133;28;20077;-76
2024/02/24 05:02:06;;;;;;;3.40;1.42;;;;;;;1.50;100.00;99705.19;5001605;28;20021;-75
2024/02/24 05:04:31;;;;;;;2.92;1.20;;;;;;;1.50;100.00;99705.19;5001927;28;20034;-75
2024/02/24 05:06:57;;;;;;;5.10;1.67;;;;;;;1.48;100.00;99714.34;5004962;28;21254;-75
2024/02/24 05:09:23;;;;;;;3.17;1.20;;;;;;;1.44;100.00;99705.31;5002567;28;20038;-77
2024/02/24 05:11:49;;;;;;;5.57;1.52;;;;;;;1.40;100.00;99715.50;5002031;28;20084;-77
2024/02/24 05:14:18;;;;;;;5.05;1.77;;;;;;;1.42;100.00;99715.28;5002156;28;20037;-77
2024/02/24 05:16:44;;;;;;;3.28;1.42;;;;;;;1.43;100.00;99730.09;5005636;28;20700;-76
2024/02/24 05:19:10;;;;;;;5.30;1.50;;;;;;;1.41;100.00;99716.31;5004305;28;20038;-77
2024/02/24 05:21:36;;;;;;;6.75;1.38;;;;;;;1.42;100.00;99723.19;5004743;28;20119;-76
2024/02/24 05:24:01;;;;;;;;;;;;;;;1.42;100.00;99726.63;5002354;28;20444;-76
2024/02/24 05:26:29;;;;;;;3.72;1.40;;;;;;;1.41;100.00;99735.59;4984854;28;19999;-75
2024/02/24 05:28:55;;;;;;;4.40;1.73;;;;;;;1.44;100.00;99729.06;5006393;28;20065;-76
2024/02/24 05:31:21;;;;;;;6.18;1.50;;;;;;;1.46;100.00;99734.88;4985409;28;20112;-77
2024/02/24 05:33:47;;;;;;;4.47;1.17;;;;;;;1.48;100.00;99732.81;5002594;28;21072;-75
2024/02/24 05:36:14;;;;;;;5.40;1.60;;;;;;;1.49;100.00;99737.06;5004801;28;20088;-76
2024/02/24 05:38:40;;;;;;;5.60;1.67;;;;;;;1.47;100.00;99732.00;5002350;28;20038;-74
2024/02/24 05:41:06;;;;;;;3.85;1.83;;;;;;;1.42;100.00;99734.53;5002755;28;20033;-75
2024/02/24 05:43:32;;;;;;;6.90;1.65;;;;;;;1.38;100.00;99736.06;5001728;28;20030;-74
2024/02/24 05:45:59;;;;;;;4.00;2.00;;;;;;;1.34;100.00;99741.00;5001974;28;20115;-77
2024/02/24 05:48:26;;;;;;;3.17;1.50;;;;;;;1.32;100.00;99729.09;4995321;28;20040;-74
2024/02/24 05:50:53;;;;;;;4.80;1.60;;;;;;;1.32;100.00;99737.78;4988292;28;20037;-76
2024/02/24 05:53:19;;;;;;;3.75;1.48;;;;;;;1.35;100.00;99734.72;5002885;28;20041;-77
2024/02/24 05:55:46;;;;;;;3.05;1.40;;;;;;;1.37;100.00;99734.47;5001821;28;20052;-76
2024/02/24 05:58:12;;;;;;;4.70;1.60;;;;;;;1.40;100.00;99746.38;5003432;28;20045;-76
2024/02/24 06:00:39;;;;;;;5.07;1.50;;;;;;;1.43;100.00;99741.44;5000455;28;20046;-76
2024/02/24 06:03:10;;;;;;;6.60;2.33;;;;;;;1.47;100.00;99741.75;5003478;28;20060;-77
2024/02/24 06:05:36;;;;;;;5.28;1.50;;;;;;;1.49;100.00;99755.53;5012781;28;20046;-77
2024/02/24 06:08:02;;;;;;;6.05;2.10;;;;;;;1.51;100.00;99753.47;5002639;28;20403;-76
2024/02/24 06:10:28;;;;;;;4.22;1.70;;;;;;;1.53;100.00;99761.94;4997152;28;20047;-76
2024/02/24 06:12:54;;;;;;;6.32;1.70;;;;;;;1.54;100.00;99766.19;5000970;28;20034;-76
2024/02/24 06:15:19;;;;;;;3.85;1.83;;;;;;;1.54;100.00;99766.19;4997844;28;20048;-77
2024/02/24 06:17:45;;;;;;;4.13;1.60;;;;;;;1.55;100.00;99765.13;4987768;28;20111;-75
2024/02/24 06:20:11;;;;;;;3.83;2.00;;;;;;;1.55;100.00;99775.69;4978123;28;20045;-75
2024/02/24 06:22:37;;;;;;;3.50;1.50;;;;;;;1.56;100.00;99779.97;4998152;28;20061;-74
2024/02/24 06:25:04;;;;;;;3.50;1.95;;;;;;;1.57;100.00;99778.94;4995158;28;20030;-75
2024/02/24 06:27:31;;;;;;;4.32;1.70;;;;;;;1.57;100.00;99771.00;4980645;28;20037;-75
2024/02/24 06:29:59;;;;;;;4.35;1.48;;;;;;;1.59;100.00;99771.56;4984422;28;20160;-75
2024/02/24 06:32:25;;;;;;;8.20;1.67;;;;;;;1.56;100.00;99777.31;4983278;28;20191;-75
2024/02/24 06:34:51;;;;;;;6.22;1.60;;;;;;;1.57;100.00;99771.00;5001090;28;20026;-76
2024/02/24 06:37:17;;;;;;;3.15;1.80;;;;;;;1.55;100.00;99781.78;5011750;28;20048;-75
2024/02/24 06:39:42;;;;;;;4.43;1.40;;;;;;;1.55;100.00;99775.69;4997635;28;20068;-76
2024/02/24 06:42:08;;;;;;;3.70;1.80;;;;;;;1.55;100.00;99778.34;5002829;28;20108;-77
2024/02/24 06:44:34;;;;;;;4.72;1.50;;;;;;;1.56;100.00;99779.97;5002182;28;20034;-75
2024/02/24 06:46:59;;;;;;;5.18;1.73;;;;;;;1.54;100.00;99772.25;5001723;28;20042;-74
2024/02/24 06:49:25;;;;;;;5.63;1.60;;;;;;;1.53;100.00;99777.78;5002549;28;20083;-75
2024/02/24 06:51:51;;;;;;;6.68;1.33;;;;;;;1.54;100.00;99782.81;5000956;28;20063;-76
2024/02/24 06:54:17;;;;;;;4.90;1.77;;;;;;;1.55;100.00;99783.63;4999319;28;20036;-76
2024/02/24 06:56:42;;;;;;;6.72;1.60;;;;;;;1.55;100.00;99781.78;4986396;28;20395;-76
2024/02/24 06:59:08;;;;;;;6.45;2.50;;;;;;;1.56;100.00;99788.69;4983756;28;20025;-75
2024/02/24 07:01:34;;;;;;;4.10;1.40;;;;;;;1.58;100.00;99789.25;5002178;28;20482;-76
2024/02/24 07:04:00;;;;;;;4.25;1.95;;;;;;;1.63;100.00;99799.09;4997737;28;20041;-76
2024/02/24 07:06:26;;;;;;;4.15;1.63;;;;;;;1.66;100.00;99798.63;4967519;28;20480;-76
2024/02/24 07:08:52;;;;;;;3.55;1.52;;;;;;;1.71;100.00;99798.72;5002877;28;20044;-77
2024/02/24 07:11:17;;;;;;;6.07;1.80;;;;;;;1.76;100.00;99798.00;4992893;28;20041;-76
2024/02/24 07:13:43;;;;;;;4.13;1.52;;;;;;;1.78;100.00;99794.13;4999402;28;20490;-76
2024/02/24 07:16:09;;;;;;;5.95;1.98;;;;;;;1.81;100.00;99796.28;4997336;28;20463;-75
2024/02/24 07:18:37;;;;;;;5.55;1.55;;;;;;;1.84;100.00;99795.03;5001516;28;20041;-76
2024/02/24 07:21:03;;;;;;;6.15;2.05;;;;;;;1.86;100.00;99799.03;5001327;28;20029;-76
2024/02/24 07:23:28;;;;;;;4.60;1.77;;;;;;;1.89;100.00;99798.53;5014208;28;20729;-76
2024/02/24 07:25:54;;;;;;;4.63;1.90;;;;;;;1.89;100.00;99803.81;5001219;28;20517;-76
2024/02/24 07:28:19;;;;;;;4.70;1.80;;;;;;;1.90;100.00;99813.38;4998786;28;20042;-76
2024/02/24 07:30:45;;;;;;;6.10;1.70;;;;;;;1.92;100.00;99813.13;5012749;28;20798;-74
2024/02/24 07:33:11;;;;;;;4.18;2.05;;;;;;;1.96;100.00;99818.72;5001260;28;20052;-74
2024/02/24 07:35:37;;;;;;;3.05;1.50;;;;;;;1.97;100.00;99815.06;4998995;28;20046;-73
2024/02/24 07:38:03;;;;;;;6.63;1.90;;;;;;;1.99;100.00;99813.78;4996609;28;20055;-73
2024/02/24 07:40:28;;;;;;;6.32;1.92;;;;;;;2.05;100.00;99812.84;4999252;28;20066;-73
2024/02/24 07:42:54;;;;;;;6.55;1.38;;;;;;;2.10;100.00;99822.69;5002480;28;20041;-74
2024/02/24 07:45:25;;;;;;;4.05;1.55;;;;;;;2.14;100.00;99815.91;5000890;28;20156;-73
2024/02/24 07:47:52;;;;;;;8.02;1.95;;;;;;;2.16;100.00;99816.47;4983426;28;20418;-73
2024/02/24 07:50:17;;;;;;;3.25;1.63;;;;;;;2.15;100.00;99813.03;5000022;28;20034;-73
2024/02/24 07:52:43;;;;;;;2.30;1.40;;;;;;;2.19;100.00;99822.09;4997966;28;20803;-73
2024/02/24 07:55:09;;;;;;;5.63;1.95;;;;;;;2.20;100.00;99817.59;4999248;28;20061;-73
2024/02/24 07:57:35;;;;;;;6.13;1.70;;;;;;;2.23;100.00;99827.69;5000273;28;20041;-75
2024/02/24 08:00:00;;;;;;;6.30;1.70;;;;;;;2.27;100.00;99830.66;4999055;28;20588;-73
2024/02/24 08:02:26;;;;;;;3.00;1.20;;;;;;;2.31;100.00;99826.53;5001531;28;20044;-73
2024/02/24 08:04:51;;;;;;;5.07;1.83;;;;;;;2.35;100.00;99828.44;5003268;28;20034;-74
2024/02/24 08:07:18;;;;;;;5.45;1.90;;;;;;;2.38;100.00;99838.53;5005918;28;20049;-73
2024/02/24 08:09:44;;;;;;;4.80;1.55;;;;;;;2.44;100.00;99842.88;4973289;28;20042;-74
2024/02/24 08:12:10;;;;;;;3.65;2.22;;;;;;;2.47;100.00;99847.69;5006572;28;20034;-73
2024/02/24 08:14:36;;;;;;;4.63;1.60;;;;;;;2.53;100.00;99845.13;5009592;28;20033;-73
2024/02/24 08:17:01;;;;;;;5.80;1.92;;;;;;;2.55;100.00;99838.56;5003078;28;20040;-74
2024/02/24 08:19:27;;;;;;;6.25;1.85;;;;;;;2.61;100.00;99842.09;5016104;28;20034;-73
2024/02/24 08:21:53;;;;;;;5.03;1.58;;;;;;;2.61;100.00;99842.91;5003456;28;20681;-74
2024/02/24 08:24:19;;;;;;;6.18;2.35;;;;;;;2.67;100.00;99844.59;5009354;28;20041;-74
2024/02/24 08:26:45;;;;;;;5.95;1.60;;;;;;;2.72;100.00;99854.44;4994678;28;20060;-72
2024/02/24 08:29:11;;;;;;;3.33;1.88;;;;;;;2.77;100.00;99846.56;5026461;28;20064;-73
2024/02/24 08:31:38;;;;;;;6.40;1.30;;;;;;;2.84;100.00;99852.50;5009361;28;20069;-73
2024/02/24 08:34:03;;;;;;;4.50;1.75;;;;;;;2.89;100.00;99849.16;5008192;28;20033;-73
2024/02/24 08:36:29;;;;;;;4.40;1.60;;;;;;;2.92;100.00;99857.41;5019793;28;20034;-73
2024/02/24 08:38:56;;;;;;;4.75;1.58;;;;;;;2.98;100.00;99858.28;5006332;28;20037;-74
2024/02/24 08:41:22;;;;;;;3.03;1.80;;;;;;;3.03;100.00;99854.91;5009204;28;20069;-73
2024/02/24 08:43:48;;;;;;;5.20;1.80;;;;;;;3.09;100.00;99860.03;4990024;28;20068;-73
2024/02/24 08:46:14;;;;;;;4.13;1.98;;;;;;;3.14;100.00;99856.69;5005433;28;20034;-73
2024/02/24 08:48:39;;;;;;;5.57;2.00;;;;;;;3.19;100.00;99849.63;4993972;28;20133;-73
2024/02/24 08:51:05;;;;;;;8.43;2.03;;;;;;;3.27;100.00;99856.34;5013667;28;20034;-75
2024/02/24 08:53:31;;;;;;;4.15;1.60;;;;;;;3.32;100.00;99853.78;5008988;28;20060;-74
2024/02/24 08:56:00;;;;;;;5.97;1.60;;;;;;;3.37;100.00;99853.03;4997535;28;20548;-74
2024/02/24 08:58:30;;;;;;;5.72;1.70;;;;;;;3.42;100.00;99848.63;5003020;28;20037;-73
2024/02/24 09:00:56;;;;;;;4.50;1.83;;;;;;;3.48;100.00;99852.94;5001079;28;20037;-73
2024/02/24 09:03:22;;;;;;;6.22;2.17;;;;;;;3.57;100.00;99855.97;5004021;28;20041;-74
2024/02/24 09:05:48;;;;;;;5.68;1.80;;;;;;;3.66;100.00;99853.69;5010660;28;20040;-74
2024/02/24 09:08:14;;;;;;;3.92;1.83;;;;;;;3.74;100.00;99855.94;5001869;28;20030;-75
2024/02/24 09:10:39;;;;;;;4.68;1.50;;;;;;;3.79;100.00;99851.50;5006942;28;20721;-75
2024/02/24 09:13:05;;;;;;;6.25;2.00;;;;;;;3.87;100.00;99860.84;4975758;28;20025;-74
2024/02/24 09:15:31;;;;;;;5.72;1.88;;;;;;;3.98;100.00;99857.25;5008551;28;20092;-74
2024/02/24 09:17:56;;;;;;;5.07;1.65;;;;;;;4.08;100.00;99861.91;5002158;28;20049;-73
2024/02/24 09:20:22;;;;;;;4.68;2.10;;;;;;;4.20;100.00;99864.38;5009473;28;20416;-72
2024/02/24 09:22:49;;;;;;;5.32;1.65;;;;;;;4.32;100.00;99863.19;5011027;28;20041;-74
2024/02/24 09:25:15;;;;;;;4.68;1.90;;;;;;;4.46;100.00;99868.09;5016760;28;20030;-74
2024/02/24 09:27:44;;;;;;;4.57;1.77;;;;;;;4.55;100.00;99867.41;4987275;28;20044;-74
2024/02/24 09:30:10;;;;;;;5.93;1.65;;;;;;;4.66;100.00;99870.94;5004262;28;20391;-73
2024/02/24 09:32:39;;;;;;;5.93;1.90;;;;;;;4.81;100.00;99878.25;5005911;28;20055;-73
2024/02/24 09:35:06;;;;;;;6.13;1.73;;;;;;;4.91;100.00;99875.69;5007817;28;20056;-74
2024/02/24 09:37:34;;;;;;;3.60;1.60;;;;;;;5.01;100.00;99883.72;5021207;28;20053;-74
2024/02/24 09:40:05;;;;;;;3.70;1.20;;;;;;;5.16;100.00;99878.53;5002457;28;20311;-74
2024/02/24 09:42:31;;;;;;;4.50;1.30;;;;;;;5.28;100.00;99872.22;4989815;28;20100;-74
2024/02/24 09:44:59;;;;;;;2.85;1.33;;;;;;;5.37;100.00;99876.03;5004671;28;20041;-73
2024/02/24 09:47:28;;;;;;;4.75;1.85;;;;;;;5.46;100.00;99874.47;5004848;28;20797;-74
2024/02/24 09:49:57;;;;;;;3.25;1.20;;;;;;;5.59;100.00;99879.34;5006801;28;20361;-74
2024/02/24 09:52:23;;;;;;;5.10;1.50;;;;;;;5.77;100.00;99872.78;5005508;28;20117;-73
2024/02/24 09:54:48;;;;;;;4.07;1.40;;;;;;;5.95;100.00;99874.22;4987538;28;20176;-73
2024/02/24 09:57:20;;;;;;;4.43;2.03;;;;;;;6.13;100.00;99871.09;4993977;28;20156;-73
2024/02/24 09:59:48;;;;;;;4.13;1.23;;;;;;;6.27;100.00;99872.19;5010611;28;20112;-73
2024/02/24 10:02:14;;;;;;;2.55;1.48;;;;;;;6.43;100.00;99880.22;5002138;28;20140;-75
2024/02/24 10:04:40;;;;;;;5.05;1.27;;;;;;;6.42;100.00;99879.41;4997693;28;20034;-74
2024/02/24 10:07:06;;;;;;;3.85;1.30;;;;;;;6.55;100.00;99892.19;5006954;28;20037;-73
2024/02/24 10:09:33;;;;;;;2.40;1.10;;;;;;;6.57;100.00;99887.44;5001474;28;20057;-74
2024/02/24 10:12:02;;;;;;;1.80;1.05;;;;;;;6.57;100.00;99887.44;5001565;28;20052;-73
2024/02/24 10:14:29;;;;;;;3.45;1.55;;;;;;;6.64;100.00;99881.03;4999320;28;20040;-73
2024/02/24 10:16:58;;;;;;;4.63;1.13;;;;;;;6.71;100.00;99890.38;4987035;28;20045;-74
2024/02/24 10:19:28;;;;;;;2.85;1.35;;;;;;;6.76;100.00;99889.56;4990937;28;20626;-75
2024/02/24 10:21:53;;;;;;;2.88;1.05;;;;;;;6.66;100.00;99900.22;4997282;28;20098;-75
2024/02/24 10:24:20;;;;;;;4.47;1.70;;;;;;;6.69;100.00;99883.72;5003623;28;20037;-74
2024/02/24 10:26:51;;;;;;;3.90;1.23;;;;;;;6.70;100.00;99902.06;5011237;28;20081;-75
2024/02/24 10:29:17;;;;;;;4.28;1.42;;;;;;;6.76;100.00;99897.56;4986913;28;20046;-75
2024/02/24 10:31:44;;;;;;;3.17;1.27;;;;;;;6.82;100.00;99904.47;5010258;28;20037;-73
2024/02/24 10:34:10;;;;;;;3.40;1.48;;;;;;;6.97;100.00;99901.81;5003762;28;20038;-75
2024/02/24 10:36:38;;;;;;;5.35;1.52;;;;;;;7.05;100.00;99892.53;4989089;28;20086;-74
2024/02/24 10:39:05;;;;;;;4.05;1.20;;;;;;;7.13;100.00;99905.31;5005603;28;20489;-74
2024/02/24 10:41:31;;;;;;;2.05;1.23;;;;;;;7.24;100.00;99896.22;5000305;28;20038;-75
2024/02/24 10:43:59;;;;;;;1.27;0.63;;;;;;;7.31;100.00;99895.94;4986842;28;20076;-74
2024/02/24 10:46:25;;;;;;;2.45;1.33;;;;;;;7.35;100.00;99900.47;4999332;28;20030;-74
2024/02/24 10:48:51;;;;;;;4.45;1.02;;;;;;;7.43;100.00;99893.00;5019001;28;20080;-75
2024/02/24 10:51:17;;;;;;;2.05;1.30;;;;;;;7.46;100.00;99897.81;4999489;28;20091;-74
2024/02/24 10:53:49;;;;;;;2.88;1.20;;;;;;;7.54;100.00;99894.59;5006797;28;20495;-74
2024/02/24 10:56:17;;;;;;;;;;;;;;;7.71;100.00;99894.28;4970820;28;20041;-75
2024/02/24 10:58:42;;;;;;;3.28;1.20;;;;;;;7.65;100.00;99890.81;5006415;28;19917;-75
2024/02/24 11:01:08;;;;;;;4.20;1.10;;;;;;;7.74;100.00;99889.22;5001437;28;20072;-75
2024/02/24 11:03:34;;;;;;;3.05;1.20;;;;;;;7.94;100.00;99885.69;4986982;28;20530;-75
2024/02/24 11:06:02;;;;;;;3.50;1.15;;;;;;;8.13;100.00;99892.00;5002644;28;20128;-75
2024/02/24 11:08:43;;;;;;;2.80;1.35;;;;;;;8.34;100.00;99895.38;4987143;28;20068;-74
2024/02/24 11:11:11;;;;;;;3.58;1.00;;;;;;;8.47;100.00;99900.13;5006879;28;20121;-74
2024/02/24 11:13:37;;;;;;;2.42;0.88;;;;;;;8.58;100.00;99898.19;5023844;28;20045;-73
2024/02/24 11:16:07;;;;;;;2.97;1.15;;;;;;;8.75;100.00;99898.63;4990381;28;20129;-74
2024/02/24 11:18:48;;;;;;;2.45;1.30;;;;;;;8.82;100.00;99884.97;5005668;28;20041;-75
2024/02/24 11:21:17;;;;;;;3.92;1.10;;;;;;;8.83;100.00;99881.22;4999228;28;20099;-74
2024/02/24 11:23:44;;;;;;;2.65;1.00;;;;;;;8.85;100.00;99884.38;4998794;28;20042;-73
2024/02/24 11:26:13;;;;;;;3.40;1.10;;;;;;;8.79;100.00;99879.38;5005516;28;20538;-74
2024/02/24 11:28:59;;;;;;;2.47;0.85;;;;;;;8.70;100.00;99895.19;4998642;28;20491;-74